createdAt,value
2019-02-09T00:00:49.636Z,2.6
2019-02-09T00:01:49.525Z,2.6
2019-02-09T00:02:49.417Z,2.6
2019-02-09T00:03:49.296Z,2.6
2019-02-09T00:04:49.195Z,2.6
2019-02-09T00:05:49.512Z,2.6
2019-02-09T00:06:49.409Z,2.6
2019-02-09T00:07:49.283Z,2.6
2019-02-09T00:08:49.175Z,2.6
2019-02-09T00:09:49.073Z,2.6
2019-02-09T00:10:48.959Z,2.6
2019-02-09T00:11:48.841Z,2.6
2019-02-09T00:12:48.719Z,2.6
2019-02-09T00:13:48.597Z,2.6
2019-02-09T00:14:48.509Z,2.5
2019-02-09T00:15:48.805Z,2.5
2019-02-09T00:16:48.692Z,2.5
2019-02-09T00:17:48.590Z,2.5
2019-02-09T00:18:48.513Z,2.5
2019-02-09T00:19:48.393Z,2.6
2019-02-09T00:20:48.329Z,2.6
2019-02-09T00:21:48.227Z,2.6
2019-02-09T00:22:48.117Z,2.6
2019-02-09T00:23:47.995Z,2.6
2019-02-09T00:24:47.878Z,2.6
2019-02-09T00:25:48.189Z,2.5
2019-02-09T00:26:48.110Z,2.5
2019-02-09T00:27:48.205Z,2.5
2019-02-09T00:28:48.075Z,2.5
2019-02-09T00:29:47.967Z,2.5
2019-02-09T00:30:47.866Z,2.5
2019-02-09T00:31:47.767Z,2.5
2019-02-09T00:32:47.668Z,2.6
2019-02-09T00:33:47.553Z,2.5
2019-02-09T00:34:47.459Z,2.5
2019-02-09T00:35:47.832Z,2.5
2019-02-09T00:36:47.780Z,2.6
2019-02-09T00:37:47.659Z,2.6
2019-02-09T00:38:47.555Z,2.6
2019-02-09T00:39:47.498Z,2.7
2019-02-09T00:40:47.383Z,2.6
2019-02-09T00:41:47.282Z,2.7
2019-02-09T00:42:47.181Z,2.7
2019-02-09T00:43:47.051Z,2.8
2019-02-09T00:44:46.940Z,2.8
2019-02-09T00:45:47.241Z,2.8
2019-02-09T00:46:47.135Z,2.8
2019-02-09T00:47:47.045Z,2.8
2019-02-09T00:48:46.940Z,2.9
2019-02-09T00:49:46.836Z,2.9
2019-02-09T00:50:46.718Z,3.1
2019-02-09T00:51:46.609Z,3.2
2019-02-09T00:52:46.505Z,3.3
2019-02-09T00:53:48.122Z,3.3
2019-02-09T00:54:48.066Z,3.3
2019-02-09T00:55:48.355Z,3.4
2019-02-09T00:56:48.251Z,3.4
2019-02-09T00:57:48.148Z,3.4
2019-02-09T00:58:48.052Z,3.4
2019-02-09T00:59:54.908Z,3.3
2019-02-09T01:00:54.788Z,3.3
2019-02-09T01:01:54.679Z,3.3
2019-02-09T01:02:54.602Z,3.3
2019-02-09T01:03:54.487Z,3.3
2019-02-09T01:04:54.377Z,3.2
2019-02-09T01:05:54.666Z,3.2
2019-02-09T01:06:54.566Z,3.2
2019-02-09T01:07:54.484Z,3.1
2019-02-09T01:08:54.403Z,3.1
2019-02-09T01:09:54.295Z,3.1
2019-02-09T01:10:54.180Z,3
2019-02-09T01:11:54.086Z,3
2019-02-09T01:12:53.974Z,3
2019-02-09T01:13:53.880Z,3
2019-02-09T01:14:53.780Z,2.9
2019-02-09T01:15:54.097Z,2.9
2019-02-09T01:16:53.992Z,2.9
2019-02-09T01:17:53.902Z,2.9
2019-02-09T01:18:53.794Z,2.9
2019-02-09T01:19:53.684Z,2.9
2019-02-09T01:20:53.588Z,2.9
2019-02-09T01:21:53.470Z,3.1
2019-02-09T01:23:53.124Z,3.2
2019-02-09T01:24:53.020Z,3.3
2019-02-09T01:25:53.330Z,3.3
2019-02-09T01:26:53.254Z,3.3
2019-02-09T01:27:53.140Z,3.3
2019-02-09T01:28:53.038Z,3.3
2019-02-09T01:29:52.992Z,3.3
2019-02-09T01:30:52.868Z,3.3
2019-02-09T01:31:52.764Z,3.2
2019-02-09T01:32:52.676Z,3.1
2019-02-09T01:33:52.558Z,3.1
2019-02-09T01:34:52.462Z,3.1
2019-02-09T01:35:52.778Z,3.1
2019-02-09T01:36:52.648Z,3
2019-02-09T01:37:52.533Z,2.9
2019-02-09T01:38:52.414Z,2.8
2019-02-09T01:39:52.306Z,2.8
2019-02-09T01:40:52.200Z,2.7
2019-02-09T01:41:52.092Z,2.7
2019-02-09T01:42:51.971Z,2.7
2019-02-09T01:43:51.858Z,2.7
2019-02-09T01:44:51.746Z,2.6
2019-02-09T01:45:52.088Z,2.7
2019-02-09T01:46:51.968Z,2.6
2019-02-09T01:47:51.856Z,2.6
2019-02-09T01:48:51.732Z,2.6
2019-02-09T01:49:51.628Z,2.6
2019-02-09T01:50:51.523Z,2.6
2019-02-09T01:51:51.426Z,2.6
2019-02-09T01:52:51.305Z,2.5
2019-02-09T01:53:51.190Z,2.5
2019-02-09T01:54:51.068Z,2.5
2019-02-09T01:55:51.394Z,2.5
2019-02-09T01:56:51.300Z,2.5
2019-02-09T01:57:51.176Z,2.5
2019-02-09T01:58:51.066Z,2.5
2019-02-09T01:59:50.959Z,2.5
2019-02-09T02:00:50.884Z,2.4
2019-02-09T02:01:50.784Z,2.4
2019-02-09T02:02:50.664Z,2.4
2019-02-09T02:03:50.557Z,2.4
2019-02-09T02:04:50.445Z,2.3
2019-02-09T02:05:50.758Z,2.4
2019-02-09T02:06:50.658Z,2.3
2019-02-09T02:07:50.538Z,2.3
2019-02-09T02:08:50.450Z,2.4
2019-02-09T02:09:50.338Z,2.3
2019-02-09T02:10:50.242Z,2.4
2019-02-09T02:11:50.116Z,2.3
2019-02-09T02:12:50.044Z,2.3
2019-02-09T02:13:49.948Z,2.3
2019-02-09T02:14:49.834Z,2.3
2019-02-09T02:15:50.162Z,2.2
2019-02-09T02:16:50.039Z,2.2
2019-02-09T02:17:49.917Z,2.2
2019-02-09T02:18:49.812Z,2.2
2019-02-09T02:19:49.710Z,2.2
2019-02-09T02:20:49.649Z,2.1
2019-02-09T02:21:49.604Z,2.1
2019-02-09T02:22:49.492Z,2
2019-02-09T02:23:49.372Z,2
2019-02-09T02:24:49.265Z,2
2019-02-09T02:25:49.586Z,2
2019-02-09T02:26:49.471Z,2
2019-02-09T02:27:49.349Z,2
2019-02-09T02:28:49.256Z,1.9
2019-02-09T02:29:49.154Z,1.9
2019-02-09T02:30:49.039Z,1.9
2019-02-09T02:31:48.943Z,1.9
2019-02-09T02:32:48.821Z,1.9
2019-02-09T02:33:51.227Z,1.8
2019-02-09T02:34:51.128Z,1.9
2019-02-09T02:35:51.574Z,1.9
2019-02-09T02:36:51.492Z,1.8
2019-02-09T02:37:51.464Z,1.8
2019-02-09T02:38:51.363Z,1.8
2019-02-09T02:39:51.260Z,1.8
2019-02-09T02:40:51.137Z,1.8
2019-02-09T02:41:51.063Z,1.8
2019-02-09T02:42:51.031Z,1.8
2019-02-09T02:43:50.957Z,1.8
2019-02-09T02:44:50.863Z,1.8
2019-02-09T02:45:51.209Z,1.8
2019-02-09T02:46:51.174Z,1.8
2019-02-09T02:47:51.065Z,1.8
2019-02-09T02:48:51.073Z,1.8
2019-02-09T02:49:50.979Z,1.8
2019-02-09T02:50:50.875Z,1.8
2019-02-09T02:51:50.765Z,1.9
2019-02-09T02:52:50.676Z,1.8
2019-02-09T02:53:50.648Z,1.8
2019-02-09T02:54:50.552Z,1.8
2019-02-09T02:55:50.919Z,1.8
2019-02-09T02:56:50.807Z,1.8
2019-02-09T02:57:50.710Z,1.8
2019-02-09T02:58:50.615Z,1.8
2019-02-09T02:59:50.507Z,1.9
2019-02-09T03:00:50.417Z,1.8
2019-02-09T03:01:50.317Z,1.8
2019-02-09T03:02:50.197Z,1.8
2019-02-09T03:03:50.087Z,1.8
2019-02-09T03:04:49.979Z,1.8
2019-02-09T03:05:50.279Z,1.8
2019-02-09T03:06:50.202Z,1.8
2019-02-09T03:07:50.107Z,1.7
2019-02-09T03:08:50.013Z,1.8
2019-02-09T03:09:49.906Z,1.8
2019-02-09T03:10:49.789Z,1.8
2019-02-09T03:11:49.693Z,1.8
2019-02-09T03:12:49.623Z,1.8
2019-02-09T03:13:49.521Z,1.9
2019-02-09T03:14:49.427Z,1.9
2019-02-09T03:15:49.765Z,2
2019-02-09T03:16:49.659Z,2
2019-02-09T03:17:49.698Z,2.2
2019-02-09T03:18:49.597Z,2.3
2019-02-09T03:19:49.517Z,2.3
2019-02-09T03:20:49.406Z,2.4
2019-02-09T03:21:49.305Z,2.5
2019-02-09T03:22:49.237Z,2.5
2019-02-09T03:23:49.163Z,2.5
2019-02-09T03:24:49.065Z,2.5
2019-02-09T03:25:49.438Z,2.5
2019-02-09T03:26:49.344Z,2.5
2019-02-09T03:27:49.267Z,2.5
2019-02-09T03:28:49.149Z,2.6
2019-02-09T03:29:49.042Z,2.6
2019-02-09T03:30:49.917Z,2.6
2019-02-09T03:33:49.369Z,2.8
2019-02-09T03:34:49.239Z,2.9
2019-02-09T03:35:49.544Z,2.9
2019-02-09T03:36:49.464Z,2.9
2019-02-09T03:37:49.389Z,2.9
2019-02-09T03:38:49.268Z,2.9
2019-02-09T03:39:49.195Z,2.9
2019-02-09T03:40:49.087Z,2.8
2019-02-09T03:41:49.031Z,2.7
2019-02-09T03:42:48.953Z,2.7
2019-02-09T03:43:48.841Z,2.6
2019-02-09T03:44:48.722Z,2.6
2019-02-09T03:45:49.043Z,2.5
2019-02-09T03:46:48.965Z,2.4
2019-02-09T03:47:48.893Z,2.4
2019-02-09T03:48:48.790Z,2.3
2019-02-09T03:49:48.695Z,2.3
2019-02-09T03:50:48.570Z,2.3
2019-02-09T03:51:48.466Z,2.4
2019-02-09T03:52:48.378Z,2.3
2019-02-09T03:53:48.281Z,2.3
2019-02-09T03:54:48.185Z,2.3
2019-02-09T03:55:48.516Z,2.3
2019-02-09T03:56:48.419Z,2.4
2019-02-09T03:57:48.329Z,2.3
2019-02-09T03:58:48.237Z,3.4
2019-02-09T03:59:48.115Z,2.4
2019-02-09T04:00:56.472Z,2.5
2019-02-09T04:01:56.365Z,2.6
2019-02-09T04:02:56.256Z,2.7
2019-02-09T04:03:56.179Z,2.7
2019-02-09T04:04:56.078Z,2.7
2019-02-09T04:05:56.405Z,2.7
2019-02-09T04:06:56.317Z,2.8
2019-02-09T04:07:56.297Z,2.8
2019-02-09T04:08:56.195Z,2.8
2019-02-09T04:09:56.081Z,2.9
2019-02-09T04:10:55.993Z,2.9
2019-02-09T04:11:55.877Z,2.9
2019-02-09T04:12:55.762Z,2.8
2019-02-09T04:13:55.694Z,2.8
2019-02-09T04:14:55.591Z,2.8
2019-02-09T04:15:56.007Z,2.8
2019-02-09T04:16:55.889Z,2.8
2019-02-09T04:17:55.783Z,2.8
2019-02-09T04:18:55.663Z,2.7
2019-02-09T04:19:55.567Z,2.7
2019-02-09T04:20:55.471Z,2.7
2019-02-09T04:21:55.360Z,2.6
2019-02-09T04:22:55.273Z,2.6
2019-02-09T04:23:55.204Z,2.7
2019-02-09T04:24:55.141Z,2.7
2019-02-09T04:25:55.464Z,2.7
2019-02-09T04:26:55.358Z,2.7
2019-02-09T04:27:55.221Z,2.6
2019-02-09T04:28:55.120Z,2.6
2019-02-09T04:29:55.008Z,2.6
2019-02-09T04:30:54.910Z,2.6
2019-02-09T04:32:06.787Z,2.8
2019-02-09T04:33:06.674Z,2.8
2019-02-09T04:34:06.563Z,2.8
2019-02-09T04:35:06.460Z,2.9
2019-02-09T04:36:06.821Z,2.9
2019-02-09T04:37:06.710Z,2.9
2019-02-09T04:38:06.594Z,2.9
2019-02-09T04:39:06.464Z,2.9
2019-02-09T04:40:06.350Z,2.9
2019-02-09T04:41:06.250Z,2.9
2019-02-09T04:42:06.137Z,2.9
2019-02-09T04:43:06.019Z,2.9
2019-02-09T04:44:05.911Z,2.9
2019-02-09T04:45:05.804Z,2.8
2019-02-09T04:46:06.107Z,2.8
2019-02-09T04:47:05.980Z,2.8
2019-02-09T04:48:05.880Z,2.7
2019-02-09T04:49:05.760Z,2.7
2019-02-09T04:50:05.654Z,2.7
2019-02-09T04:51:05.578Z,2.7
2019-02-09T04:52:05.458Z,2.7
2019-02-09T04:53:05.330Z,2.7
2019-02-09T04:54:05.216Z,2.6
2019-02-09T04:55:05.118Z,2.6
2019-02-09T04:56:05.464Z,2.6
2019-02-09T04:57:05.376Z,2.6
2019-02-09T04:58:05.281Z,2.6
2019-02-09T04:59:05.190Z,2.6
2019-02-09T05:00:05.082Z,2.7
2019-02-09T05:01:13.513Z,2.7
2019-02-09T05:02:14.195Z,2.6
2019-02-09T05:03:14.111Z,2.7
2019-02-09T05:04:14.000Z,2.6
2019-02-09T05:05:13.904Z,2.6
2019-02-09T05:06:14.257Z,2.7
2019-02-09T05:07:14.182Z,2.7
2019-02-09T05:08:14.085Z,2.7
2019-02-09T05:09:14.022Z,2.7
2019-02-09T05:10:14.031Z,2.7
2019-02-09T05:11:13.950Z,2.7
2019-02-09T05:12:13.876Z,2.7
2019-02-09T05:13:16.659Z,2.8
2019-02-09T05:14:16.587Z,2.8
2019-02-09T05:15:16.596Z,2.8
2019-02-09T05:16:16.923Z,2.8
2019-02-09T05:17:16.907Z,2.8
2019-02-09T05:18:16.810Z,2.8
2019-02-09T05:19:16.694Z,2.8
2019-02-09T05:20:16.577Z,2.9
2019-02-09T05:21:16.477Z,2.9
2019-02-09T05:22:16.369Z,2.9
2019-02-09T05:23:16.290Z,3
2019-02-09T05:24:16.168Z,3.1
2019-02-09T05:25:16.084Z,3
2019-02-09T05:26:16.412Z,3.1
2019-02-09T05:27:16.290Z,3
2019-02-09T05:28:16.202Z,3.1
2019-02-09T05:29:16.086Z,3.1
2019-02-09T05:30:15.979Z,3.2
2019-02-09T05:31:24.147Z,3.2
2019-02-09T05:32:24.039Z,3.3
2019-02-09T05:33:23.951Z,3.4
2019-02-09T05:34:23.847Z,3.3
2019-02-09T05:35:23.760Z,3.5
2019-02-09T05:36:24.113Z,3.4
2019-02-09T05:37:24.023Z,3.5
2019-02-09T05:38:23.922Z,3.5
2019-02-09T05:39:23.828Z,3.5
2019-02-09T05:40:23.708Z,3.6
2019-02-09T05:41:23.621Z,3.6
2019-02-09T05:42:23.526Z,3.6
2019-02-09T05:43:23.411Z,3.6
2019-02-09T05:44:23.290Z,3.6
2019-02-09T05:45:23.195Z,3.6
2019-02-09T05:46:23.544Z,3.6
2019-02-09T05:47:23.480Z,3.4
2019-02-09T05:48:23.420Z,3.5
2019-02-09T05:49:23.341Z,3.5
2019-02-09T05:50:23.228Z,3.6
2019-02-09T05:51:23.150Z,3.6
2019-02-09T05:52:23.041Z,3.6
2019-02-09T05:53:22.942Z,3.6
2019-02-09T05:54:22.838Z,3.5
2019-02-09T05:55:22.831Z,3.5
2019-02-09T05:56:23.228Z,3.5
2019-02-09T05:57:23.119Z,3.5
2019-02-09T05:58:23.010Z,3.4
2019-02-09T05:59:22.931Z,3.5
2019-02-09T06:00:22.861Z,3.5
2019-02-09T06:01:31.513Z,3.4
2019-02-09T06:02:32.581Z,3.4
2019-02-09T06:03:32.496Z,3.4
2019-02-09T06:04:32.418Z,3.4
2019-02-09T06:05:32.373Z,3.3
2019-02-09T06:06:32.765Z,3.3
2019-02-09T06:07:32.671Z,3.3
2019-02-09T06:08:32.571Z,3.3
2019-02-09T06:09:32.455Z,3.3
2019-02-09T06:10:32.377Z,3.3
2019-02-09T06:11:32.251Z,3.3
2019-02-09T06:12:32.139Z,3.4
2019-02-09T06:13:32.045Z,3.3
2019-02-09T06:14:31.955Z,3.3
2019-02-09T06:15:31.844Z,3.3
2019-02-09T06:16:32.197Z,3.3
2019-02-09T06:17:32.119Z,3.3
2019-02-09T06:18:32.011Z,3.3
2019-02-09T06:19:31.925Z,3.2
2019-02-09T06:20:31.822Z,3.2
2019-02-09T06:21:31.735Z,3.2
2019-02-09T06:22:31.629Z,3.1
2019-02-09T06:23:31.523Z,3.2
2019-02-09T06:24:31.403Z,3.1
2019-02-09T06:25:31.337Z,3.1
2019-02-09T06:26:33.777Z,3
2019-02-09T06:27:33.673Z,3.1
2019-02-09T06:28:33.602Z,3.1
2019-02-09T06:29:33.575Z,3.2
2019-02-09T06:30:33.465Z,3.2
2019-02-09T06:31:41.801Z,3.3
2019-02-09T06:32:41.705Z,3.3
2019-02-09T06:33:41.587Z,3.3
2019-02-09T06:34:41.493Z,3.4
2019-02-09T06:35:41.393Z,3.4
2019-02-09T06:36:41.726Z,3.4
2019-02-09T06:37:41.647Z,3.3
2019-02-09T06:38:41.527Z,3.4
2019-02-09T06:39:41.458Z,3.4
2019-02-09T06:40:41.356Z,3.4
2019-02-09T06:41:41.271Z,3.4
2019-02-09T06:42:41.184Z,3.4
2019-02-09T06:43:41.065Z,3.4
2019-02-09T06:44:40.957Z,3.4
2019-02-09T06:45:40.847Z,3.4
2019-02-09T06:46:41.205Z,3.4
2019-02-09T06:47:41.119Z,3.4
2019-02-09T06:48:41.031Z,3.3
2019-02-09T06:49:40.927Z,3.4
2019-02-09T06:50:40.873Z,3.4
2019-02-09T06:51:40.783Z,3.4
2019-02-09T06:52:40.689Z,3.5
2019-02-09T06:53:40.582Z,3.6
2019-02-09T06:54:40.477Z,3.7
2019-02-09T06:55:40.349Z,3.7
2019-02-09T06:56:40.641Z,3.7
2019-02-09T06:57:40.515Z,3.8
2019-02-09T06:58:40.417Z,3.8
2019-02-09T06:59:40.305Z,3.9
2019-02-09T07:00:40.195Z,3.9
2019-02-09T07:01:40.092Z,3.9
2019-02-09T07:02:48.155Z,3.9
2019-02-09T07:03:48.063Z,3.9
2019-02-09T07:04:47.961Z,3.8
2019-02-09T07:05:47.835Z,3.9
2019-02-09T07:06:48.147Z,3.9
2019-02-09T07:07:48.048Z,3.9
2019-02-09T07:08:47.945Z,3.9
2019-02-09T07:09:47.863Z,3.8
2019-02-09T07:10:47.760Z,3.8
2019-02-09T07:11:47.655Z,3.9
2019-02-09T07:12:47.537Z,3.9
2019-02-09T07:13:47.427Z,4
2019-02-09T07:14:47.327Z,4
2019-02-09T07:15:47.211Z,4.1
2019-02-09T07:16:47.539Z,4.2
2019-02-09T07:17:47.442Z,4.2
2019-02-09T07:18:47.335Z,4.2
2019-02-09T07:19:47.252Z,4.3
2019-02-09T07:20:47.129Z,4.3
2019-02-09T07:21:47.015Z,4.4
2019-02-09T07:22:46.921Z,4.3
2019-02-09T07:23:46.806Z,4.3
2019-02-09T07:24:46.712Z,4.3
2019-02-09T07:25:46.623Z,4.2
2019-02-09T07:26:46.970Z,4.2
2019-02-09T07:27:46.872Z,4.2
2019-02-09T07:28:46.805Z,4.2
2019-02-09T07:29:46.705Z,4.2
2019-02-09T07:30:46.610Z,4.2
2019-02-09T07:31:46.486Z,4.2
2019-02-09T07:32:46.362Z,4.2
2019-02-09T07:33:46.274Z,4.3
2019-02-09T07:34:46.173Z,4.3
2019-02-09T07:35:46.076Z,4.4
2019-02-09T07:36:46.410Z,4.4
2019-02-09T07:37:46.304Z,4.4
2019-02-09T07:38:46.190Z,4.4
2019-02-09T07:39:46.134Z,4.5
2019-02-09T07:40:46.064Z,4.5
2019-02-09T07:41:45.948Z,4.5
2019-02-09T07:42:45.834Z,4.5
2019-02-09T07:43:45.726Z,4.5
2019-02-09T07:44:45.628Z,4.5
2019-02-09T07:45:45.513Z,4.4
2019-02-09T07:46:45.897Z,4.3
2019-02-09T07:47:45.774Z,4.3
2019-02-09T07:48:45.667Z,4.3
2019-02-09T07:49:45.546Z,4.3
2019-02-09T07:50:45.431Z,4.3
2019-02-09T07:51:45.338Z,4.3
2019-02-09T07:52:45.231Z,4.3
2019-02-09T07:53:45.112Z,4.3
2019-02-09T07:54:44.986Z,4.3
2019-02-09T07:55:44.871Z,4.3
2019-02-09T07:56:45.215Z,4.3
2019-02-09T07:57:45.146Z,4.2
2019-02-09T07:58:45.036Z,4.2
2019-02-09T07:59:44.916Z,4.2
2019-02-09T08:00:44.823Z,4.2
2019-02-09T08:01:44.702Z,4.2
2019-02-09T08:02:44.596Z,4.2
2019-02-09T08:03:44.480Z,4.2
2019-02-09T08:04:44.355Z,4.1
2019-02-09T08:05:44.249Z,4.1
2019-02-09T08:06:44.595Z,4.1
2019-02-09T08:07:44.503Z,4.1
2019-02-09T08:08:44.396Z,4.1
2019-02-09T08:09:44.286Z,4.1
2019-02-09T08:10:44.180Z,4.2
2019-02-09T08:11:44.070Z,4.2
2019-02-09T08:12:43.972Z,4.3
2019-02-09T08:13:43.854Z,4.3
2019-02-09T08:14:43.758Z,4.3
2019-02-09T08:15:43.672Z,4.4
2019-02-09T08:16:44.002Z,4.4
2019-02-09T08:17:43.887Z,4.5
2019-02-09T08:18:43.788Z,4.4
2019-02-09T08:19:43.676Z,4.5
2019-02-09T08:20:43.556Z,4.4
2019-02-09T08:21:43.459Z,4.3
2019-02-09T08:22:43.340Z,4.3
2019-02-09T08:23:43.250Z,4.2
2019-02-09T08:24:43.148Z,4.2
2019-02-09T08:25:43.053Z,4.1
2019-02-09T08:26:43.374Z,4.2
2019-02-09T08:27:43.264Z,4.2
2019-02-09T08:28:43.164Z,4.2
2019-02-09T08:29:43.082Z,4.2
2019-02-09T08:30:42.981Z,4.2
2019-02-09T08:31:42.880Z,4.2
2019-02-09T08:32:42.764Z,4.3
2019-02-09T08:33:42.700Z,4.3
2019-02-09T08:34:42.628Z,4.4
2019-02-09T08:35:42.514Z,4.4
2019-02-09T08:36:42.881Z,4.5
2019-02-09T08:37:42.779Z,4.5
2019-02-09T08:38:42.699Z,4.6
2019-02-09T08:39:42.602Z,4.6
2019-02-09T08:40:42.509Z,4.6
2019-02-09T08:41:42.374Z,4.6
2019-02-09T08:42:42.287Z,4.7
2019-02-09T08:43:42.190Z,4.6
2019-02-09T08:44:42.114Z,4.6
2019-02-09T08:45:41.997Z,4.6
2019-02-09T08:46:42.302Z,4.6
2019-02-09T08:47:42.452Z,4.5
2019-02-09T08:48:42.345Z,4.5
2019-02-09T08:49:42.229Z,4.5
2019-02-09T08:50:42.166Z,4.6
2019-02-09T08:51:42.071Z,4.6
2019-02-09T08:52:41.975Z,4.5
2019-02-09T08:53:41.884Z,4.5
2019-02-09T08:54:41.786Z,4.5
2019-02-09T08:55:41.696Z,4.6
2019-02-09T08:56:42.039Z,4.6
2019-02-09T08:57:41.916Z,4.7
2019-02-09T08:58:41.824Z,4.7
2019-02-09T08:59:41.720Z,4.8
2019-02-09T09:00:41.635Z,4.8
2019-02-09T09:01:41.519Z,4.7
2019-02-09T09:02:41.425Z,4.7
2019-02-09T09:03:41.353Z,4.7
2019-02-09T09:04:41.237Z,4.7
2019-02-09T09:05:41.143Z,4.7
2019-02-09T09:06:41.468Z,4.7
2019-02-09T09:07:41.345Z,4.6
2019-02-09T09:08:41.241Z,4.6
2019-02-09T09:09:41.127Z,4.6
2019-02-09T09:10:41.023Z,4.6
2019-02-09T09:11:40.919Z,4.6
2019-02-09T09:12:40.791Z,4.6
2019-02-09T09:13:40.680Z,4.6
2019-02-09T09:14:40.571Z,4.6
2019-02-09T09:15:40.465Z,4.5
2019-02-09T09:16:40.807Z,4.4
2019-02-09T09:17:40.699Z,4.4
2019-02-09T09:18:40.591Z,4.4
2019-02-09T09:19:40.480Z,4.4
2019-02-09T09:20:40.359Z,4.4
2019-02-09T09:21:40.283Z,4.7
2019-02-09T09:22:41.859Z,4.5
2019-02-09T09:23:41.742Z,4.5
2019-02-09T09:24:41.641Z,4.5
2019-02-09T09:25:41.539Z,4.6
2019-02-09T09:26:41.897Z,4.7
2019-02-09T09:27:41.795Z,4.7
2019-02-09T09:28:41.691Z,4.7
2019-02-09T09:29:41.592Z,4.6
2019-02-09T09:30:41.470Z,4.6
2019-02-09T09:31:41.371Z,4.6
2019-02-09T09:32:41.281Z,4.6
2019-02-09T09:33:41.159Z,4.6
2019-02-09T09:34:41.061Z,4.6
2019-02-09T09:35:40.945Z,4.6
2019-02-09T09:36:41.438Z,4.6
2019-02-09T09:37:41.329Z,4.6
2019-02-09T09:38:41.225Z,4.6
2019-02-09T09:39:41.129Z,4.6
2019-02-09T09:40:41.045Z,4.6
2019-02-09T09:41:40.941Z,4.6
2019-02-09T09:42:40.855Z,4.6
2019-02-09T09:43:40.747Z,4.6
2019-02-09T09:44:40.688Z,4.6
2019-02-09T09:45:40.829Z,4.6
2019-02-09T09:46:41.395Z,4.6
2019-02-09T09:47:41.294Z,4.6
2019-02-09T09:48:41.643Z,4.7
2019-02-09T09:49:41.661Z,4.7
2019-02-09T09:50:41.549Z,4.7
2019-02-09T09:51:41.437Z,4.6
2019-02-09T09:52:41.324Z,4.6
2019-02-09T09:53:41.307Z,4.6
2019-02-09T09:54:41.179Z,4.6
2019-02-09T09:55:41.085Z,4.6
2019-02-09T09:56:41.405Z,4.6
2019-02-09T09:57:41.323Z,4.5
2019-02-09T09:58:41.247Z,4.6
2019-02-09T09:59:41.148Z,4.6
2019-02-09T10:00:41.099Z,4.7
2019-02-09T10:01:40.997Z,4.8
2019-02-09T10:02:40.907Z,4.8
2019-02-09T10:03:40.810Z,4.9
2019-02-09T10:04:40.694Z,5
2019-02-09T10:05:40.563Z,5
2019-02-09T10:06:40.902Z,5.1
2019-02-09T10:07:40.789Z,5.1
2019-02-09T10:08:40.679Z,5.2
2019-02-09T10:09:40.558Z,5.2
2019-02-09T10:10:40.458Z,5.3
2019-02-09T10:11:40.337Z,5.3
2019-02-09T10:12:40.251Z,5.3
2019-02-09T10:13:40.174Z,5.2
2019-02-09T10:14:40.062Z,5.2
2019-02-09T10:15:39.938Z,5.2
2019-02-09T10:16:40.293Z,5.2
2019-02-09T10:17:40.203Z,5.1
2019-02-09T10:18:40.147Z,5.1
2019-02-09T10:19:40.041Z,5.1
2019-02-09T10:20:39.969Z,5.1
2019-02-09T10:21:39.893Z,5.1
2019-02-09T10:22:39.780Z,5.1
2019-02-09T10:23:39.693Z,5.1
2019-02-09T10:24:39.580Z,5.1
2019-02-09T10:25:39.462Z,5.1
2019-02-09T10:26:40.835Z,5
2019-02-09T10:27:40.734Z,5
2019-02-09T10:28:40.619Z,5
2019-02-09T10:29:40.536Z,5
2019-02-09T10:30:40.439Z,5
2019-02-09T10:31:40.332Z,5
2019-02-09T10:32:45.215Z,5.1
2019-02-09T10:33:45.118Z,5.1
2019-02-09T10:34:45.030Z,5.1
2019-02-09T10:35:44.920Z,5.2
2019-02-09T10:36:45.309Z,5.1
2019-02-09T10:37:45.195Z,5.2
2019-02-09T10:38:45.087Z,5.2
2019-02-09T10:39:44.976Z,5.2
2019-02-09T10:40:44.912Z,5.3
2019-02-09T10:41:44.822Z,5.2
2019-02-09T10:42:44.714Z,5.3
2019-02-09T10:43:44.665Z,5.5
2019-02-09T10:44:44.559Z,5.6
2019-02-09T10:45:44.504Z,5.7
2019-02-09T10:46:44.865Z,5.8
2019-02-09T10:47:44.758Z,5.8
2019-02-09T10:48:44.644Z,5.9
2019-02-09T10:49:44.545Z,6.1
2019-02-09T10:50:44.450Z,6.2
2019-02-09T10:51:44.370Z,6.2
2019-02-09T10:52:44.259Z,6.2
2019-02-09T10:53:44.153Z,6.2
2019-02-09T10:54:44.068Z,6.2
2019-02-09T10:55:43.975Z,6.1
2019-02-09T10:56:44.335Z,6.1
2019-02-09T10:57:44.714Z,6.1
2019-02-09T10:58:44.601Z,6.1
2019-02-09T10:59:44.488Z,6.2
2019-02-09T11:00:44.388Z,6.3
2019-02-09T11:01:44.335Z,6.4
2019-02-09T11:02:51.889Z,6.6
2019-02-09T11:03:52.278Z,6.6
2019-02-09T11:04:52.178Z,6.7
2019-02-09T11:05:52.084Z,6.8
2019-02-09T11:06:52.484Z,6.9
2019-02-09T11:07:52.366Z,7
2019-02-09T11:08:52.285Z,7
2019-02-09T11:09:52.180Z,7
2019-02-09T11:10:52.138Z,7
2019-02-09T11:11:52.036Z,7.1
2019-02-09T11:12:51.944Z,7
2019-02-09T11:13:51.840Z,7
2019-02-09T11:14:51.756Z,7.1
2019-02-09T11:15:51.651Z,7.1
2019-02-09T11:16:52.033Z,7
2019-02-09T11:17:51.964Z,7.1
2019-02-09T11:18:51.862Z,7.1
2019-02-09T11:19:51.764Z,7
2019-02-09T11:20:51.686Z,7
2019-02-09T11:21:51.581Z,7.2
2019-02-09T11:22:51.496Z,7.2
2019-02-09T11:23:51.466Z,7.2
2019-02-09T11:24:51.353Z,7.1
2019-02-09T11:25:53.044Z,7.1
2019-02-09T11:26:53.376Z,7.2
2019-02-09T11:27:53.271Z,7.1
2019-02-09T11:28:53.190Z,7.1
2019-02-09T11:29:53.076Z,7.1
2019-02-09T11:30:52.942Z,7.2
2019-02-09T11:31:52.860Z,7.3
2019-02-09T11:33:03.048Z,7.3
2019-02-09T11:34:02.975Z,7.3
2019-02-09T11:35:02.894Z,7.4
2019-02-09T11:36:02.788Z,7.4
2019-02-09T11:37:03.198Z,7.6
2019-02-09T11:38:03.104Z,7.5
2019-02-09T11:39:03.042Z,7.5
2019-02-09T11:40:02.936Z,7.5
2019-02-09T11:41:02.836Z,7.5
2019-02-09T11:42:02.735Z,7.5
2019-02-09T11:43:02.638Z,7.3
2019-02-09T11:44:02.582Z,7.4
2019-02-09T11:45:02.462Z,7.4
2019-02-09T11:46:02.363Z,7.4
2019-02-09T11:47:02.708Z,7.3
2019-02-09T11:48:02.884Z,7.3
2019-02-09T11:49:02.817Z,7.3
2019-02-09T11:50:02.736Z,7.3
2019-02-09T11:51:02.867Z,7.4
2019-02-09T11:52:02.779Z,7.3
2019-02-09T11:53:02.749Z,7.3
2019-02-09T11:54:02.657Z,7.2
2019-02-09T11:55:02.544Z,7.1
2019-02-09T11:56:02.436Z,7.1
2019-02-09T11:57:03.316Z,7.1
2019-02-09T11:58:03.200Z,7.2
2019-02-09T11:59:03.118Z,7.1
2019-02-09T12:00:03.024Z,6.9
2019-02-09T12:01:02.914Z,6.9
2019-02-09T12:02:02.823Z,6.8
2019-02-09T12:03:16.496Z,6.8
2019-02-09T12:04:16.496Z,6.9
2019-02-09T12:05:16.387Z,6.8
2019-02-09T12:06:16.275Z,6.8
2019-02-09T12:07:17.899Z,6.8
2019-02-09T12:08:17.851Z,6.8
2019-02-09T12:09:17.776Z,6.8
2019-02-09T12:10:17.703Z,6.9
2019-02-09T12:11:17.614Z,6.9
2019-02-09T12:12:17.515Z,6.9
2019-02-09T12:13:17.405Z,6.8
2019-02-09T12:14:17.339Z,6.9
2019-02-09T12:15:17.229Z,7
2019-02-09T12:16:17.165Z,6.9
2019-02-09T12:17:17.523Z,6.8
2019-02-09T12:18:17.409Z,6.8
2019-02-09T12:19:17.301Z,6.9
2019-02-09T12:20:17.220Z,6.9
2019-02-09T12:21:17.138Z,7
2019-02-09T12:22:17.023Z,7
2019-02-09T12:23:16.930Z,6.9
2019-02-09T12:24:16.835Z,6.9
2019-02-09T12:25:16.767Z,6.9
2019-02-09T12:26:16.673Z,6.8
2019-02-09T12:27:17.031Z,6.8
2019-02-09T12:28:17.109Z,6.7
2019-02-09T12:29:17.439Z,6.7
2019-02-09T12:30:17.343Z,6.6
2019-02-09T12:31:17.389Z,6.7
2019-02-09T12:32:17.419Z,6.7
2019-02-09T12:33:23.993Z,6.7
2019-02-09T12:34:23.958Z,6.7
2019-02-09T12:35:23.913Z,6.7
2019-02-09T12:36:23.805Z,6.7
2019-02-09T12:37:24.147Z,6.7
2019-02-09T12:38:24.036Z,6.7
2019-02-09T12:39:23.946Z,6.8
2019-02-09T12:40:23.833Z,6.7
2019-02-09T12:41:23.734Z,6.7
2019-02-09T12:42:23.615Z,6.5
2019-02-09T12:43:23.521Z,6.6
2019-02-09T12:44:23.452Z,6.6
2019-02-09T12:45:23.353Z,6.6
2019-02-09T12:46:23.241Z,6.6
2019-02-09T12:47:23.610Z,6.6
2019-02-09T12:48:23.527Z,6.5
2019-02-09T12:49:23.449Z,6.6
2019-02-09T12:50:23.346Z,6.6
2019-02-09T12:51:23.225Z,6.6
2019-02-09T12:52:23.146Z,6.6
2019-02-09T12:53:23.057Z,6.6
2019-02-09T12:54:22.959Z,6.7
2019-02-09T12:55:22.871Z,6.6
2019-02-09T12:56:22.777Z,6.6
2019-02-09T12:57:23.105Z,6.6
2019-02-09T12:58:23.019Z,6.6
2019-02-09T12:59:22.927Z,6.5
2019-02-09T13:00:22.919Z,6.5
2019-02-09T13:01:22.808Z,6.5
2019-02-09T13:02:22.731Z,6.5
2019-02-09T13:03:30.624Z,6.5
2019-02-09T13:04:31.494Z,6.5
2019-02-09T13:05:31.417Z,6.5
2019-02-09T13:06:31.293Z,6.4
2019-02-09T13:07:31.627Z,6.4
2019-02-09T13:08:31.523Z,6.4
2019-02-09T13:09:31.447Z,6.4
2019-02-09T13:10:31.336Z,6.5
2019-02-09T13:11:31.239Z,6.4
2019-02-09T13:12:31.177Z,6.4
2019-02-09T13:13:31.083Z,6.4
2019-02-09T13:14:30.976Z,6.4
2019-02-09T13:15:30.873Z,6.4
2019-02-09T13:16:30.768Z,6.4
2019-02-09T13:17:31.077Z,6.4
2019-02-09T13:18:30.982Z,6.3
2019-02-09T13:19:30.865Z,6.3
2019-02-09T13:20:30.773Z,6.3
2019-02-09T13:21:30.674Z,6.4
2019-02-09T13:22:30.573Z,6.4
2019-02-09T13:23:30.491Z,6.4
2019-02-09T13:24:30.383Z,6.4
2019-02-09T13:25:30.281Z,6.4
2019-02-09T13:26:30.169Z,6.4
2019-02-09T13:27:30.495Z,6.3
2019-02-09T13:28:30.367Z,6.3
2019-02-09T13:29:30.273Z,6.3
2019-02-09T13:30:30.167Z,6.4
2019-02-09T13:31:30.052Z,6.3
2019-02-09T13:32:29.938Z,6.4
2019-02-09T13:33:29.832Z,6.4
2019-02-09T13:34:29.742Z,6.4
2019-02-09T13:35:29.646Z,6.5
2019-02-09T13:36:29.541Z,6.5
2019-02-09T13:37:29.981Z,6.5
2019-02-09T13:38:29.895Z,6.5
2019-02-09T13:39:29.796Z,6.5
2019-02-09T13:40:29.693Z,6.5
2019-02-09T13:41:29.673Z,6.6
2019-02-09T13:42:29.598Z,6.6
2019-02-09T13:43:29.489Z,6.7
2019-02-09T13:44:29.383Z,6.7
2019-02-09T13:45:29.289Z,6.8
2019-02-09T13:46:29.214Z,6.9
2019-02-09T13:47:29.534Z,6.9
2019-02-09T13:48:29.422Z,7
2019-02-09T13:49:29.365Z,7
2019-02-09T13:50:29.279Z,7.1
2019-02-09T13:51:29.174Z,7.1
2019-02-09T13:52:29.090Z,7.1
2019-02-09T13:53:28.990Z,7.2